Time;durP1;ratioP1;P1;durP2;ratioP2;P2;SDS_P1;SDS_P2;PMS_P1;PMS_P2;Temp;Humidity;BMP_temperature;BMP_pressure;BME280_temperature;BME280_humidity;BME280_pressure;Samples;Min_cycle;Max_cycle;Signal;HPM_P1;HPM_P2
2021/10/02 00:34:17;;;;;;;6.53;5.90;;;12.70;99.90;;;;;;6146633;23;20426;-89
2021/10/02 00:46:09;;;;;;;7.63;6.50;;;12.60;99.90;;;;;;6300135;22;20434;-89
2021/10/02 00:48:48;;;;;;;6.73;6.17;;;12.60;99.90;;;;;;6274840;22;20534;-89
2021/10/02 00:51:28;;;;;;;6.47;5.87;;;12.60;99.90;;;;;;6300877;22;20422;-88
2021/10/02 00:53:56;;;;;;;6.80;5.83;;;12.60;99.90;;;;;;6273330;22;20408;-90
2021/10/02 00:56:38;;;;;;;6.40;5.80;;;12.60;99.90;;;;;;6273850;22;20396;-89
2021/10/02 00:59:09;;;;;;;6.80;6.20;;;12.60;99.90;;;;;;6276407;22;20496;-89
2021/10/02 01:02:10;;;;;;;7.27;6.47;;;12.70;99.90;;;;;;6273102;22;20416;-89
2021/10/02 01:05:15;;;;;;;7.47;5.97;;;12.60;99.90;;;;;;6300472;22;20391;-89
2021/10/02 01:07:53;;;;;;;7.13;6.30;;;12.50;99.90;;;;;;6296443;22;20504;-89
2021/10/02 01:10:44;;;;;;;6.70;6.00;;;12.50;99.90;;;;;;6296436;22;20467;-89
2021/10/02 01:13:48;;;;;;;6.17;5.60;;;12.40;99.90;;;;;;6274337;22;20395;-89
2021/10/02 01:16:31;;;;;;;6.90;6.20;;;12.40;99.90;;;;;;6273321;22;20438;-90
2021/10/02 01:19:30;;;;;;;6.17;5.53;;;12.30;99.90;;;;;;6247626;22;20478;-89
2021/10/02 01:22:18;;;;;;;6.93;6.27;;;12.30;99.90;;;;;;6273844;22;20404;-89
2021/10/02 01:25:18;;;;;;;5.90;5.30;;;12.30;99.90;;;;;;6299711;22;20392;-89
2021/10/02 01:28:17;;;;;;;6.20;5.60;;;12.30;99.90;;;;;;6300689;22;20514;-89
2021/10/02 01:30:55;;;;;;;6.20;5.60;;;12.20;99.90;;;;;;6272651;22;20429;-89
2021/10/02 01:47:55;;;;;;;6.50;5.90;;;12.40;99.90;;;;;;6302711;22;20446;-89
2021/10/02 01:50:25;;;;;;;7.00;5.77;;;12.50;99.90;;;;;;6249255;22;20772;-89
2021/10/02 01:52:55;;;;;;;6.70;5.87;;;12.50;99.90;;;;;;6275817;22;20400;-89
2021/10/02 01:55:42;;;;;;;6.17;5.57;;;12.60;99.90;;;;;;6275332;22;20889;-89
2021/10/02 01:58:10;;;;;;;8.27;6.60;;;12.70;99.90;;;;;;6270441;22;20400;-89
2021/10/02 02:00:43;;;;;;;7.87;6.90;;;12.70;99.90;;;;;;6275786;22;20387;-89
2021/10/02 02:03:15;;;;;;;9.70;7.50;;;12.70;99.90;;;;;;6275831;22;20450;-89
2021/10/02 02:05:44;;;;;;;8.37;6.70;;;12.60;99.90;;;;;;6305636;22;20386;-88
2021/10/02 02:08:28;;;;;;;7.50;6.53;;;12.60;99.90;;;;;;6306013;22;20447;-89
2021/10/02 02:10:56;;;;;;;6.63;5.97;;;12.60;99.90;;;;;;6275502;22;20392;-90
2021/10/02 02:13:25;;;;;;;7.60;6.90;;;12.60;99.90;;;;;;6250119;22;20726;-90
2021/10/02 02:15:57;;;;;;;8.40;7.70;;;12.60;99.90;;;;;;6272241;22;20392;-90
2021/10/02 02:18:24;;;;;;;7.70;6.90;;;12.60;99.90;;;;;;6272096;22;20924;-89
2021/10/02 02:21:05;;;;;;;8.60;7.53;;;12.60;99.90;;;;;;6273570;22;20529;-89
2021/10/02 02:23:32;;;;;;;8.90;8.00;;;12.70;99.90;;;;;;6289086;22;20405;-89
2021/10/02 02:26:05;;;;;;;8.53;7.70;;;12.60;99.90;;;;;;6223752;22;20404;-89
2021/10/02 02:28:41;;;;;;;8.00;7.20;;;12.50;99.90;;;;;;6273114;22;20466;-89
2021/10/02 02:31:07;;;;;;;7.60;6.50;;;12.50;99.90;;;;;;6273824;22;20413;-89
2021/10/02 02:33:36;;;;;;;8.07;6.97;;;12.50;99.90;;;;;;6274288;22;20411;-89
2021/10/02 02:36:03;;;;;;;8.73;7.93;;;12.50;99.90;;;;;;6301859;22;20380;-89
2021/10/02 02:38:31;;;;;;;8.20;7.40;;;12.40;99.90;;;;;;6273504;22;20384;-89
2021/10/02 02:41:05;;;;;;;8.87;7.50;;;12.50;99.90;;;;;;6301688;22;20384;-89
2021/10/02 02:43:34;;;;;;;9.80;8.17;;;12.40;99.90;;;;;;6274261;22;20395;-89
2021/10/02 02:46:11;;;;;;;8.53;7.30;;;12.40;99.90;;;;;;6274140;22;20388;-89
2021/10/02 02:49:14;;;;;;;8.50;7.70;;;12.40;99.90;;;;;;6273879;22;20436;-89
2021/10/02 02:52:05;;;;;;;7.60;6.90;;;12.50;99.90;;;;;;6251137;22;20481;-89
2021/10/02 02:54:39;;;;;;;9.80;7.70;;;12.50;99.90;;;;;;6274480;22;20468;-89
2021/10/02 02:57:46;;;;;;;11.23;8.30;;;12.50;99.90;;;;;;6274435;22;20764;-89
2021/10/02 03:00:19;;;;;;;10.73;8.37;;;12.50;99.90;;;;;;6273989;22;20415;-89
2021/10/02 03:02:58;;;;;;;9.20;8.30;;;12.60;99.90;;;;;;6247480;22;20478;-89
2021/10/02 03:05:26;;;;;;;9.83;8.33;;;12.50;99.90;;;;;;6274188;22;20650;-89
2021/10/02 03:08:01;;;;;;;8.60;7.80;;;12.50;99.90;;;;;;6270200;22;20446;-89
2021/10/02 03:10:29;;;;;;;8.20;7.40;;;12.50;99.90;;;;;;6274507;22;20406;-88
2021/10/02 03:13:03;;;;;;;8.03;7.20;;;12.50;99.90;;;;;;6295328;22;20396;-89
2021/10/02 03:15:30;;;;;;;9.90;8.17;;;12.50;99.90;;;;;;6256310;22;20395;-88
2021/10/02 03:17:58;;;;;;;9.10;8.20;;;12.50;99.90;;;;;;6274250;22;20442;-89
2021/10/02 03:20:25;;;;;;;9.50;8.50;;;12.50;99.90;;;;;;6300604;22;20480;-88
2021/10/02 03:23:04;;;;;;;10.60;8.63;;;12.50;99.90;;;;;;6274157;22;20477;-89
2021/10/02 03:25:34;;;;;;;9.17;7.83;;;12.50;99.90;;;;;;6298363;22;20722;-89
2021/10/02 03:28:06;;;;;;;9.27;8.47;;;12.40;99.90;;;;;;6300566;22;20492;-88
2021/10/02 03:30:33;;;;;;;7.87;7.17;;;12.40;99.90;;;;;;6246836;22;20424;-89
2021/10/02 03:33:01;;;;;;;8.83;8.00;;;12.30;99.90;;;;;;6292929;22;20487;-89
2021/10/02 03:35:29;;;;;;;8.23;7.30;;;12.30;99.90;;;;;;6290927;22;20393;-88
2021/10/02 03:38:05;;;;;;;9.23;8.30;;;12.20;99.90;;;;;;6278984;22;20733;-89
2021/10/02 03:40:34;;;;;;;8.80;7.90;;;12.10;99.90;;;;;;6274056;22;20435;-89
2021/10/02 03:43:04;;;;;;;8.43;7.53;;;12.10;99.90;;;;;;6301211;22;20467;-89
2021/10/02 03:45:36;;;;;;;9.43;8.63;;;12.00;99.90;;;;;;6273466;22;20435;-89
2021/10/02 03:48:04;;;;;;;8.57;7.77;;;12.00;99.90;;;;;;6249347;22;20446;-89
2021/10/02 03:50:35;;;;;;;11.90;7.97;;;11.80;99.90;;;;;;6300654;22;20384;-89
2021/10/02 03:53:10;;;;;;;9.33;8.33;;;11.80;99.90;;;;;;6301292;22;20400;-89
2021/10/02 03:55:36;;;;;;;9.20;8.10;;;11.80;99.90;;;;;;6273675;22;20713;-89
2021/10/02 03:58:04;;;;;;;9.30;8.30;;;11.80;99.90;;;;;;6273300;22;20209;-89
2021/10/02 04:00:30;;;;;;;9.20;8.30;;;11.70;99.90;;;;;;6272430;22;20411;-89
2021/10/02 04:02:56;;;;;;;8.80;8.00;;;11.70;99.90;;;;;;6247039;22;21037;-89
2021/10/02 04:05:21;;;;;;;8.20;7.20;;;11.70;99.90;;;;;;6222432;22;20162;-89
2021/10/02 04:07:49;;;;;;;7.60;6.83;;;11.70;99.90;;;;;;6301222;22;20239;-89
2021/10/02 04:10:18;;;;;;;9.57;8.57;;;11.80;99.90;;;;;;6273039;22;20392;-88
2021/10/02 04:13:02;;;;;;;8.40;7.50;;;11.70;99.90;;;;;;6249414;22;20392;-89
2021/10/02 04:15:31;;;;;;;7.27;6.57;;;11.70;99.90;;;;;;6273995;22;20474;-89
2021/10/02 04:17:57;;;;;;;8.07;7.27;;;11.70;99.90;;;;;;6299337;22;20396;-89
2021/10/02 04:20:24;;;;;;;8.77;7.87;;;11.60;99.90;;;;;;6248530;22;20416;-89
2021/10/02 04:22:50;;;;;;;9.03;8.13;;;11.60;99.90;;;;;;6273024;22;20419;-89
2021/10/02 04:25:17;;;;;;;8.60;7.57;;;11.60;99.90;;;;;;6272993;22;20380;-88
2021/10/02 04:27:48;;;;;;;9.80;7.90;;;11.60;99.90;;;;;;6300047;22;20193;-89
2021/10/02 04:30:13;;;;;;;8.40;7.63;;;11.60;99.90;;;;;;6274083;22;20759;-89
2021/10/02 04:32:39;;;;;;;8.47;7.53;;;11.60;99.90;;;;;;6273876;22;20439;-88
2021/10/02 04:35:06;;;;;;;8.20;7.10;;;11.60;99.90;;;;;;6271592;22;20165;-89
2021/10/02 04:37:31;;;;;;;9.27;8.37;;;11.60;99.90;;;;;;6273617;22;20635;-88
2021/10/02 04:39:57;;;;;;;8.10;7.30;;;11.60;99.90;;;;;;6273503;22;20432;-89
2021/10/02 04:42:23;;;;;;;9.33;7.70;;;11.60;99.90;;;;;;6274242;22;20200;-89
2021/10/02 04:44:48;;;;;;;7.93;7.23;;;11.60;99.90;;;;;;6273612;22;20364;-89
2021/10/02 04:47:14;;;;;;;9.57;8.00;;;11.60;99.90;;;;;;6273981;22;20319;-89
2021/10/02 04:49:42;;;;;;;9.13;7.67;;;11.70;99.90;;;;;;6275124;22;20229;-90
2021/10/02 04:52:10;;;;;;;9.10;8.03;;;11.80;99.90;;;;;;6273429;22;20161;-90
2021/10/02 04:54:36;;;;;;;8.77;7.87;;;11.90;99.90;;;;;;6273209;22;20400;-90
2021/10/02 04:57:02;;;;;;;9.00;8.10;;;12.00;99.90;;;;;;6274023;22;20426;-90
2021/10/02 04:59:33;;;;;;;8.63;7.80;;;12.10;99.90;;;;;;6274158;22;20184;-89
2021/10/02 05:01:59;;;;;;;8.77;7.90;;;12.10;99.90;;;;;;6275445;22;20480;-89
2021/10/02 05:04:24;;;;;;;8.67;7.70;;;12.10;99.90;;;;;;6273675;22;20461;-89
2021/10/02 05:06:50;;;;;;;9.20;8.30;;;12.10;99.90;;;;;;6278921;22;20178;-90
2021/10/02 05:09:24;;;;;;;7.90;7.23;;;12.00;99.90;;;;;;6273629;22;20195;-89
2021/10/02 05:11:50;;;;;;;8.97;7.53;;;12.00;99.90;;;;;;6273520;22;20160;-90
2021/10/02 05:14:16;;;;;;;9.40;8.50;;;12.00;99.90;;;;;;6273239;22;20388;-89
2021/10/02 05:16:42;;;;;;;9.20;8.30;;;11.90;99.90;;;;;;6274946;22;20187;-89
2021/10/02 05:19:08;;;;;;;10.00;8.63;;;11.90;99.90;;;;;;6302857;22;20164;-89
2021/10/02 05:21:33;;;;;;;9.43;8.47;;;11.80;99.90;;;;;;6275504;22;20758;-89
2021/10/02 05:23:59;;;;;;;9.50;8.43;;;11.80;99.90;;;;;;6275273;22;20173;-89
2021/10/02 05:26:27;;;;;;;9.93;8.97;;;11.80;99.90;;;;;;6275780;22;20153;-89
2021/10/02 05:28:53;;;;;;;9.40;8.40;;;12.00;99.90;;;;;;6274582;22;20169;-90
2021/10/02 05:31:19;;;;;;;9.20;8.30;;;11.90;99.90;;;;;;6272619;22;20392;-89
2021/10/02 05:33:52;;;;;;;9.53;8.63;;;11.90;99.90;;;;;;6275286;22;20592;-90
2021/10/02 05:36:17;;;;;;;9.27;8.37;;;11.90;99.90;;;;;;6274704;22;20162;-90
2021/10/02 05:38:43;;;;;;;8.77;7.83;;;11.90;99.90;;;;;;6275367;22;20414;-90
2021/10/02 05:41:08;;;;;;;9.60;8.80;;;11.90;99.90;;;;;;6274936;22;20166;-90
2021/10/02 05:43:34;;;;;;;10.53;8.53;;;11.90;99.90;;;;;;6275109;22;20596;-89
2021/10/02 05:46:00;;;;;;;8.77;7.97;;;12.00;99.90;;;;;;6273744;22;20264;-90
2021/10/02 05:48:25;;;;;;;12.10;8.77;;;11.90;99.90;;;;;;6275101;22;20202;-89
2021/10/02 05:50:57;;;;;;;9.50;8.60;;;11.90;99.90;;;;;;6274648;22;20197;-90
2021/10/02 05:53:22;;;;;;;11.07;8.80;;;11.90;99.90;;;;;;6275002;22;20170;-90
2021/10/02 05:55:48;;;;;;;9.30;7.83;;;12.00;99.90;;;;;;6274046;22;20398;-90
2021/10/02 05:58:14;;;;;;;8.90;7.93;;;12.10;99.90;;;;;;6274129;22;20157;-90
2021/10/02 06:00:39;;;;;;;9.00;8.10;;;12.40;99.90;;;;;;6273986;22;20180;-91
2021/10/02 06:03:05;;;;;;;9.70;8.17;;;12.50;99.90;;;;;;6274227;22;20600;-90
2021/10/02 06:05:31;;;;;;;9.40;8.50;;;12.60;99.90;;;;;;6274338;22;20180;-90
2021/10/02 06:07:59;;;;;;;9.60;8.40;;;12.70;99.90;;;;;;6274446;22;20193;-90
2021/10/02 06:10:25;;;;;;;8.80;7.90;;;12.80;99.90;;;;;;6275340;22;20394;-90
2021/10/02 06:12:54;;;;;;;9.30;8.40;;;12.90;99.90;;;;;;6274807;22;20211;-90
2021/10/02 06:15:21;;;;;;;9.60;8.60;;;13.10;99.90;;;;;;6274208;22;20814;-90
2021/10/02 06:17:47;;;;;;;8.83;8.03;;;13.20;99.90;;;;;;6274423;22;20487;-90
2021/10/02 06:20:13;;;;;;;9.17;8.27;;;13.20;99.90;;;;;;6274362;22;20917;-89
2021/10/02 06:22:38;;;;;;;11.37;8.33;;;13.20;99.90;;;;;;6274660;22;20192;-89
2021/10/02 06:25:05;;;;;;;8.03;7.20;;;13.20;99.90;;;;;;6274758;22;20162;-90
2021/10/02 06:27:32;;;;;;;9.60;8.60;;;13.20;99.90;;;;;;6274045;22;20185;-90
2021/10/02 06:29:59;;;;;;;10.60;8.03;;;13.20;99.90;;;;;;6274721;22;20729;-89
2021/10/02 06:32:25;;;;;;;9.10;8.20;;;13.20;99.90;;;;;;6274981;22;20395;-89
2021/10/02 06:34:51;;;;;;;8.67;7.80;;;13.10;99.90;;;;;;6275896;22;20399;-89
2021/10/02 06:37:16;;;;;;;10.13;9.07;;;13.00;99.90;;;;;;6280211;22;20827;-90
2021/10/02 06:39:42;;;;;;;11.57;10.37;;;13.00;99.90;;;;;;6275856;22;20161;-90
2021/10/02 06:42:08;;;;;;;14.30;12.77;;;13.00;99.90;;;;;;6276527;22;20578;-89
2021/10/02 06:44:33;;;;;;;13.87;12.47;;;13.00;99.90;;;;;;6275238;22;20158;-90
2021/10/02 06:46:59;;;;;;;19.70;17.37;;;13.10;99.90;;;;;;6274650;22;20589;-89
2021/10/02 06:49:27;;;;;;;22.17;19.77;;;13.00;99.90;;;;;;6273253;22;20183;-89
2021/10/02 06:51:55;;;;;;;11.90;10.70;;;13.00;99.90;;;;;;6272668;22;20165;-89
2021/10/02 06:54:20;;;;;;;12.07;10.87;;;13.00;99.90;;;;;;6273126;22;20419;-90
2021/10/02 06:56:52;;;;;;;10.30;9.33;;;13.00;99.90;;;;;;6273957;22;20392;-90
2021/10/02 06:59:19;;;;;;;10.03;8.97;;;13.00;99.90;;;;;;6273016;22;20566;-89
2021/10/02 07:01:44;;;;;;;10.53;9.00;;;13.10;99.90;;;;;;6274718;22;20482;-90
2021/10/02 07:04:10;;;;;;;9.70;8.80;;;13.20;99.90;;;;;;6273929;22;20424;-90
2021/10/02 07:06:36;;;;;;;9.50;8.43;;;13.30;99.90;;;;;;6273935;22;20158;-89
2021/10/02 07:09:01;;;;;;;9.13;7.93;;;13.30;99.90;;;;;;6274769;22;20165;-90
2021/10/02 07:11:30;;;;;;;8.90;8.00;;;13.40;99.90;;;;;;6273378;22;20181;-90
2021/10/02 07:13:55;;;;;;;8.47;7.67;;;13.40;99.90;;;;;;6274063;22;20185;-90
2021/10/02 07:16:21;;;;;;;8.47;7.57;;;13.50;99.90;;;;;;6274039;22;20394;-90
2021/10/02 07:18:54;;;;;;;8.97;8.07;;;13.60;99.90;;;;;;6274328;22;20169;-90
2021/10/02 07:21:20;;;;;;;12.13;8.33;;;13.70;99.90;;;;;;6273280;22;20472;-90
2021/10/02 07:23:46;;;;;;;9.77;8.77;;;13.90;99.90;;;;;;6274337;22;20388;-90
2021/10/02 07:26:12;;;;;;;8.17;7.20;;;14.00;99.90;;;;;;6273825;22;20157;-90
2021/10/02 07:28:38;;;;;;;8.93;8.13;;;14.10;99.90;;;;;;6273324;22;20431;-89
2021/10/02 07:31:03;;;;;;;8.43;7.63;;;14.10;99.90;;;;;;6273987;22;20193;-89
2021/10/02 07:33:29;;;;;;;11.20;10.10;;;14.20;99.90;;;;;;6274593;22;20659;-90
2021/10/02 07:35:57;;;;;;;16.27;13.50;;;14.30;99.90;;;;;;6272612;22;20154;-90
2021/10/02 07:38:23;;;;;;;24.80;21.37;;;14.30;99.90;;;;;;6273833;22;20453;-90
2021/10/02 07:41:00;;;;;;;23.33;18.10;;;14.30;99.90;;;;;;6301209;22;20158;-89
2021/10/02 07:43:27;;;;;;;10.13;8.97;;;14.40;99.90;;;;;;6273661;22;20399;-89
2021/10/02 07:45:59;;;;;;;9.60;7.40;;;14.30;99.90;;;;;;6272772;22;20396;-90
2021/10/02 07:48:25;;;;;;;9.53;8.63;;;14.20;99.90;;;;;;6243794;22;20444;-89
2021/10/02 07:50:54;;;;;;;10.80;8.20;;;14.30;99.90;;;;;;6243493;22;20395;-90
2021/10/02 07:53:21;;;;;;;10.10;9.10;;;14.40;99.90;;;;;;6242963;22;20476;-89
2021/10/02 07:55:51;;;;;;;10.13;9.10;;;14.50;99.90;;;;;;6242529;22;20389;-89
2021/10/02 07:58:21;;;;;;;10.30;8.13;;;14.60;99.90;;;;;;6248552;22;20408;-90
2021/10/02 08:00:48;;;;;;;9.23;7.97;;;15.00;99.90;;;;;;6245366;22;20405;-90
2021/10/02 08:03:13;;;;;;;10.30;7.27;;;15.50;99.90;;;;;;6243173;22;20397;-90
2021/10/02 08:05:39;;;;;;;7.93;6.80;;;15.70;99.90;;;;;;6244848;22;20866;-91
2021/10/02 08:08:16;;;;;;;10.00;7.27;;;15.80;99.90;;;;;;6244108;22;20194;-90
2021/10/02 08:10:43;;;;;;;10.87;6.83;;;15.80;99.90;;;;;;6242784;22;20400;-90
2021/10/02 08:13:12;;;;;;;9.03;6.57;;;15.90;99.90;;;;;;6243674;22;20432;-90
2021/10/02 08:15:54;;;;;;;7.27;5.87;;;16.00;99.90;;;;;;6242917;22;20389;-90
2021/10/02 08:18:23;;;;;;;6.77;5.20;;;16.20;99.90;;;;;;6241923;22;20431;-91
2021/10/02 08:20:49;;;;;;;5.50;4.97;;;16.30;99.90;;;;;;6242338;22;20393;-91
2021/10/02 08:23:29;;;;;;;6.30;5.60;;;16.20;99.90;;;;;;6241437;22;20746;-91
2021/10/02 08:25:55;;;;;;;7.57;5.07;;;16.50;99.90;;;;;;6242566;22;20720;-90
2021/10/02 08:28:21;;;;;;;6.20;5.60;;;16.80;99.90;;;;;;6244152;22;20644;-91
2021/10/02 08:30:49;;;;;;;5.60;4.90;;;16.90;99.90;;;;;;6242535;22;20847;-91
2021/10/02 08:33:16;;;;;;;7.40;5.00;;;17.20;99.90;;;;;;6243392;22;20527;-91
2021/10/02 08:35:42;;;;;;;5.70;4.50;;;17.40;99.90;;;;;;6241503;22;20397;-91
2021/10/02 08:38:09;;;;;;;5.70;5.00;;;17.50;99.90;;;;;;6242699;22;20794;-91
2021/10/02 08:40:34;;;;;;;4.83;4.43;;;17.50;99.90;;;;;;6242639;22;20381;-91
2021/10/02 08:43:13;;;;;;;5.03;4.63;;;17.60;99.90;;;;;;6242693;22;20442;-91
2021/10/02 08:45:40;;;;;;;4.00;3.70;;;17.70;99.90;;;;;;6242137;22;20166;-91
2021/10/02 08:48:10;;;;;;;4.13;3.83;;;17.90;99.90;;;;;;6242745;22;20443;-91
2021/10/02 08:50:40;;;;;;;4.63;4.03;;;18.20;99.90;;;;;;6242508;22;20757;-91
2021/10/02 08:53:07;;;;;;;4.50;4.10;;;18.40;99.90;;;;;;6242777;22;20401;-91
2021/10/02 08:55:34;;;;;;;6.43;4.23;;;18.70;99.10;;;;;;6242728;22;20392;-90
2021/10/02 08:58:01;;;;;;;4.80;4.40;;;18.80;98.70;;;;;;6242043;22;20736;-90
2021/10/02 09:00:28;;;;;;;4.70;4.30;;;18.80;98.60;;;;;;6242461;22;20498;-91
2021/10/02 09:02:55;;;;;;;4.13;3.63;;;19.00;98.70;;;;;;6242377;22;20877;-90
2021/10/02 09:05:22;;;;;;;5.00;3.80;;;19.10;97.90;;;;;;6242635;22;20381;-90
2021/10/02 09:07:49;;;;;;;4.30;3.90;;;19.20;98.50;;;;;;6242435;22;20533;-91
2021/10/02 09:10:15;;;;;;;4.37;3.73;;;19.40;97.30;;;;;;6242102;22;20502;-91
2021/10/02 09:12:43;;;;;;;4.20;3.80;;;19.40;97.90;;;;;;6242851;22;20408;-91
2021/10/02 09:15:09;;;;;;;4.17;3.80;;;19.60;97.40;;;;;;6241515;22;20464;-91
2021/10/02 09:17:36;;;;;;;4.40;4.00;;;19.70;96.90;;;;;;6242520;22;20397;-91
2021/10/02 09:20:04;;;;;;;4.40;4.07;;;19.80;96.20;;;;;;6242466;22;20393;-91
2021/10/02 09:22:36;;;;;;;3.77;3.47;;;19.90;96.30;;;;;;6242806;22;20454;-91
2021/10/02 09:25:05;;;;;;;4.10;3.70;;;20.20;95.90;;;;;;6239700;22;20424;-90
2021/10/02 09:27:33;;;;;;;4.10;3.70;;;20.10;95.80;;;;;;6241293;22;20432;-91
2021/10/02 09:30:07;;;;;;;4.20;3.90;;;19.90;95.80;;;;;;6240901;22;20432;-91
2021/10/02 09:32:37;;;;;;;7.60;4.00;;;19.90;95.40;;;;;;6241928;22;20387;-91
2021/10/02 09:35:12;;;;;;;6.93;3.90;;;20.20;96.30;;;;;;6244914;22;20429;-90
2021/10/02 09:37:40;;;;;;;4.97;3.60;;;20.30;95.40;;;;;;6245091;22;20727;-90
2021/10/02 09:40:17;;;;;;;4.50;3.70;;;20.40;96.00;;;;;;6240950;22;20740;-91
2021/10/02 09:42:49;;;;;;;3.97;3.67;;;20.30;95.50;;;;;;6242336;22;21053;-90
2021/10/02 09:45:24;;;;;;;5.97;4.23;;;20.30;95.40;;;;;;6241977;22;20393;-91
2021/10/02 09:47:56;;;;;;;6.53;4.27;;;20.50;95.60;;;;;;6242272;22;20436;-91
2021/10/02 09:50:25;;;;;;;4.13;3.73;;;21.00;94.80;;;;;;6241037;22;20420;-91
2021/10/02 09:52:56;;;;;;;4.27;3.87;;;21.30;93.30;;;;;;6242970;22;20690;-91
2021/10/02 09:55:24;;;;;;;4.50;4.10;;;21.20;93.50;;;;;;6241230;22;20464;-90
2021/10/02 09:57:53;;;;;;;4.07;3.40;;;21.20;93.70;;;;;;6239474;22;20410;-90
2021/10/02 10:00:24;;;;;;;4.33;3.93;;;21.20;93.40;;;;;;6269188;22;20450;-90
2021/10/02 10:02:51;;;;;;;7.97;3.90;;;21.10;93.00;;;;;;6219382;22;20725;-91
2021/10/02 10:05:17;;;;;;;4.20;3.80;;;20.70;92.30;;;;;;6243717;22;20392;-90
2021/10/02 10:07:52;;;;;;;4.73;4.33;;;20.90;93.10;;;;;;6244041;22;20918;-91
2021/10/02 10:10:18;;;;;;;4.83;4.43;;;21.10;92.60;;;;;;6244551;22;20162;-90
2021/10/02 10:12:45;;;;;;;6.07;3.90;;;21.20;92.60;;;;;;6243225;22;21128;-91
2021/10/02 10:15:38;;;;;;;6.93;4.20;;;21.40;92.60;;;;;;6243789;22;20407;-91
2021/10/02 10:18:06;;;;;;;4.07;3.77;;;21.50;92.70;;;;;;6243067;22;20400;-91
2021/10/02 10:20:47;;;;;;;4.30;3.80;;;21.80;92.20;;;;;;6243547;22;20818;-91
2021/10/02 10:23:13;;;;;;;6.10;4.23;;;21.90;92.30;;;;;;6243456;22;20843;-90
2021/10/02 10:26:18;;;;;;;4.30;3.90;;;21.80;91.90;;;;;;6243286;22;20409;-91
2021/10/02 10:28:47;;;;;;;4.63;3.80;;;21.90;91.80;;;;;;6229784;22;20211;-91
2021/10/02 10:31:22;;;;;;;5.73;4.33;;;21.80;91.80;;;;;;6243711;22;20887;-90
2021/10/02 10:33:54;;;;;;;3.80;3.50;;;21.90;92.00;;;;;;6243803;22;20462;-92
2021/10/02 10:36:23;;;;;;;4.00;3.70;;;22.00;91.70;;;;;;6243544;22;20419;-91
2021/10/02 10:38:50;;;;;;;4.00;3.70;;;22.00;91.60;;;;;;6243716;22;20393;-90
2021/10/02 10:41:16;;;;;;;4.10;3.80;;;22.20;91.30;;;;;;6242638;22;20393;-90
2021/10/02 10:43:46;;;;;;;4.30;3.90;;;22.40;91.80;;;;;;6244108;22;20720;-91
2021/10/02 10:46:15;;;;;;;4.50;4.00;;;22.80;90.60;;;;;;6243863;22;20396;-91
2021/10/02 10:48:42;;;;;;;3.80;3.50;;;22.60;90.30;;;;;;6246272;22;20441;-90
2021/10/02 10:51:14;;;;;;;4.40;4.00;;;22.60;90.70;;;;;;6243625;22;20385;-91
2021/10/02 10:53:45;;;;;;;5.03;3.87;;;22.40;90.40;;;;;;6244128;22;20381;-90
2021/10/02 10:56:15;;;;;;;4.90;4.07;;;22.40;90.40;;;;;;6270388;22;20464;-91
2021/10/02 10:58:41;;;;;;;6.40;4.27;;;22.60;90.70;;;;;;6243793;22;20397;-91
2021/10/02 11:01:09;;;;;;;5.27;3.83;;;22.50;90.30;;;;;;6243816;22;20492;-90
2021/10/02 11:03:46;;;;;;;4.67;4.27;;;22.20;90.30;;;;;;6243260;22;20389;-91
2021/10/02 11:06:14;;;;;;;4.17;3.77;;;22.10;90.90;;;;;;6249678;22;20393;-90
2021/10/02 11:09:05;;;;;;;5.13;3.57;;;22.50;91.00;;;;;;6244028;22;20437;-91
2021/10/02 11:11:46;;;;;;;4.90;4.10;;;23.00;90.50;;;;;;6243317;22;20901;-90
2021/10/02 11:14:15;;;;;;;5.10;4.20;;;23.20;89.90;;;;;;6242705;22;20401;-91
2021/10/02 11:16:45;;;;;;;4.33;3.90;;;23.40;89.20;;;;;;6242871;22;20381;-91
2021/10/02 11:19:37;;;;;;;5.87;5.23;;;23.80;88.80;;;;;;6243914;22;20393;-91
2021/10/02 11:24:51;;;;;;;4.43;4.03;;;23.80;87.70;;;;;;6270882;22;20369;-91
2021/10/02 11:27:24;;;;;;;4.63;4.10;;;24.20;88.20;;;;;;6243319;22;20806;-91
2021/10/02 11:29:51;;;;;;;6.10;4.07;;;24.60;88.10;;;;;;6242759;22;20208;-92
2021/10/02 11:32:17;;;;;;;4.83;3.77;;;25.10;85.00;;;;;;6243224;22;20775;-91
2021/10/02 11:35:16;;;;;;;5.10;4.03;;;24.60;84.80;;;;;;6242735;22;20429;-91
2021/10/02 11:37:50;;;;;;;5.00;4.23;;;24.50;86.10;;;;;;6243605;22;20158;-91
2021/10/02 11:40:41;;;;;;;4.20;3.90;;;24.10;85.20;;;;;;6243119;22;20468;-90
2021/10/02 11:43:12;;;;;;;5.17;4.43;;;24.40;85.50;;;;;;6242293;22;20446;-91
2021/10/02 11:46:03;;;;;;;5.33;4.03;;;25.00;86.00;;;;;;6242356;22;20472;-91
2021/10/02 11:48:50;;;;;;;4.47;4.07;;;25.50;86.30;;;;;;6267018;22;20451;-91
2021/10/02 11:51:23;;;;;;;5.30;4.00;;;25.10;85.80;;;;;;6242242;22;20388;-90
2021/10/02 11:53:58;;;;;;;4.57;4.10;;;25.60;82.30;;;;;;6242830;22;20392;-92
2021/10/02 11:56:27;;;;;;;6.60;4.20;;;25.60;82.80;;;;;;6242170;22;20828;-91
2021/10/02 11:58:56;;;;;;;4.27;3.87;;;25.30;81.40;;;;;;6242716;22;20405;-91
2021/10/02 12:01:24;;;;;;;4.37;3.77;;;24.90;80.30;;;;;;6242790;22;20396;-91
2021/10/02 12:04:17;;;;;;;4.67;4.27;;;25.20;81.00;;;;;;6242290;22;20443;-91
2021/10/02 12:06:57;;;;;;;4.40;3.73;;;24.80;80.70;;;;;;6241403;22;20429;-91
2021/10/02 12:09:29;;;;;;;4.60;4.23;;;25.20;80.20;;;;;;6241976;22;20412;-91
2021/10/02 12:11:55;;;;;;;4.37;4.07;;;25.20;80.40;;;;;;6243151;22;20184;-91
2021/10/02 12:14:25;;;;;;;4.40;3.80;;;25.00;80.50;;;;;;6241409;22;20397;-91
2021/10/02 12:16:56;;;;;;;4.77;4.37;;;24.80;81.10;;;;;;6242133;22;20396;-91
2021/10/02 12:19:23;;;;;;;4.00;3.70;;;24.60;83.10;;;;;;6242857;22;20487;-91
2021/10/02 12:21:56;;;;;;;3.70;3.40;;;24.70;82.60;;;;;;6241889;22;20772;-91
2021/10/02 12:24:25;;;;;;;4.53;4.13;;;25.20;81.90;;;;;;6242387;22;20389;-91
2021/10/02 12:26:58;;;;;;;3.90;3.50;;;25.30;80.00;;;;;;6242589;22;20400;-91
2021/10/02 12:29:39;;;;;;;4.97;3.57;;;25.30;79.60;;;;;;6242781;22;20409;-91
2021/10/02 12:32:12;;;;;;;4.20;3.90;;;25.00;80.00;;;;;;6240689;22;20389;-91
2021/10/02 12:34:46;;;;;;;3.73;3.43;;;25.00;79.20;;;;;;6243905;22;20400;-90
2021/10/02 12:37:16;;;;;;;3.77;3.47;;;25.10;80.30;;;;;;6245927;22;20821;-91
2021/10/02 12:39:50;;;;;;;4.20;3.83;;;25.50;78.90;;;;;;6242427;22;20397;-91
2021/10/02 12:42:35;;;;;;;4.10;3.73;;;25.10;78.10;;;;;;6241434;22;20858;-91
2021/10/02 12:45:09;;;;;;;4.00;3.40;;;25.30;78.80;;;;;;6242036;22;20400;-91
2021/10/02 12:47:36;;;;;;;4.00;3.63;;;25.20;77.60;;;;;;6246342;22;20428;-91
2021/10/02 12:50:08;;;;;;;4.73;3.67;;;25.00;79.00;;;;;;6242008;22;20394;-91
2021/10/02 12:52:34;;;;;;;4.10;3.73;;;25.00;79.10;;;;;;6241914;22;20385;-91
2021/10/02 12:55:01;;;;;;;3.80;3.13;;;24.60;77.80;;;;;;6242363;22;20389;-90
2021/10/02 12:57:37;;;;;;;5.80;3.70;;;24.40;80.30;;;;;;6241967;22;20860;-90
2021/10/02 13:00:20;;;;;;;4.23;3.83;;;24.30;80.00;;;;;;6241557;22;20770;-91
2021/10/02 13:02:49;;;;;;;6.00;4.00;;;24.40;81.20;;;;;;6243136;22;20472;-90
2021/10/02 13:05:18;;;;;;;4.20;3.87;;;24.60;80.50;;;;;;6241859;22;20397;-90
2021/10/02 13:07:49;;;;;;;3.93;3.63;;;24.90;78.60;;;;;;6241838;22;20517;-91
2021/10/02 13:10:19;;;;;;;3.90;3.47;;;25.00;76.60;;;;;;6242612;22;20771;-91
2021/10/02 13:13:05;;;;;;;4.07;3.77;;;25.30;76.40;;;;;;6242959;22;20684;-91
2021/10/02 13:15:43;;;;;;;4.00;3.53;;;25.40;76.20;;;;;;6242684;22;20514;-91
2021/10/02 13:18:23;;;;;;;3.70;3.40;;;25.70;76.80;;;;;;6242941;22;20428;-91
2021/10/02 13:20:53;;;;;;;3.40;3.10;;;25.90;73.70;;;;;;6242683;22;20439;-91
2021/10/02 13:23:40;;;;;;;4.20;3.90;;;26.30;72.70;;;;;;6243040;22;20408;-91
2021/10/02 13:26:22;;;;;;;3.87;3.57;;;27.60;71.60;;;;;;6241902;22;20389;-91
2021/10/02 13:28:53;;;;;;;6.37;3.80;;;28.60;68.10;;;;;;6242975;22;20436;-91
2021/10/02 13:31:22;;;;;;;3.87;3.57;;;28.70;67.10;;;;;;6243016;22;20489;-91
2021/10/02 13:34:10;;;;;;;5.67;5.17;;;27.50;66.50;;;;;;6243217;22;20397;-92
2021/10/02 13:36:45;;;;;;;3.17;2.97;;;26.90;69.20;;;;;;6270135;22;20699;-92
2021/10/02 13:39:12;;;;;;;3.57;3.27;;;26.50;69.40;;;;;;6241359;22;20415;-93
2021/10/02 13:41:40;;;;;;;3.93;3.60;;;26.60;69.10;;;;;;6244959;22;20647;-92
2021/10/02 13:44:06;;;;;;;4.30;3.60;;;26.40;67.50;;;;;;6244658;22;20400;-91
2021/10/02 13:46:43;;;;;;;4.23;3.87;;;26.10;69.00;;;;;;6244584;22;20384;-90
2021/10/02 13:49:11;;;;;;;3.33;3.13;;;26.00;71.10;;;;;;6244325;22;20404;-90
2021/10/02 13:51:37;;;;;;;3.33;3.13;;;26.10;70.40;;;;;;6244459;22;20389;-90
2021/10/02 13:54:04;;;;;;;4.43;3.50;;;26.30;69.50;;;;;;6244816;22;20440;-89
2021/10/02 13:56:35;;;;;;;3.30;3.10;;;26.50;70.20;;;;;;6244258;22;20730;-89
2021/10/02 13:59:01;;;;;;;4.40;4.10;;;26.80;68.40;;;;;;6244290;22;20424;-90
2021/10/02 14:01:26;;;;;;;4.23;3.93;;;27.00;66.40;;;;;;6244195;22;20412;-90
2021/10/02 14:03:52;;;;;;;4.20;3.60;;;27.40;66.10;;;;;;6244140;22;20419;-90
2021/10/02 14:06:18;;;;;;;3.30;3.10;;;27.80;64.70;;;;;;6250377;22;20465;-89